x

Potomac, Md (44042) Weather Station

10:40am - Sat 6th Feb 2016 All times are EST. -5 hours from GMT.

  • Wind
    2mph, 4mph gusts
  • Air Temp 38°f
  • Sea Pressure 1031.5mb
  • Potomac, Md
  • Potomac, Md

More Historic Weather Station data

Upgrade to MSW Pro to gain access to the past 30 days of data for over 8000 Wavebouys and Weather Stations around the globe.

Join Pro

Comparision Forecast

View Surf forecast
   
Sat 02/06 10:40am  -   -  2 4 mph 1031.5mb - 38f
10:30am  -   -  2 4 mph 1031.5mb - 38f
10:20am  -   -  2 4 mph 1031.6mb - 38f
10:10am  -   -  4
mph
1031.4mb - 38f
10:00am 0.3ft  -  2 4 mph 1031.3mb 41f 38f
9:50am  -   -  2 4 mph 1031.3mb - 38f
9:40am  -   -   -  4 mph 1031.3mb - 38f
9:30am  -   -   -  2 mph 1031.2mb - 37f
9:20am  -   -  2
mph
1031.1mb - 37f
9:10am  -   -  2
mph
1031.1mb - 36f
9:00am 0.3ft  -  2
mph
1031.1mb 40f 36f
8:50am  -   -  2
mph
1031mb - 36f
8:40am  -   -  2 4 mph 1031mb - 36f
8:30am  -   -  2 4 mph 1031.1mb - 36f
8:20am  -   -  2 4 mph 1031.1mb - 35f
8:10am  -   -  4
mph
1030.9mb - 35f
8:00am 0.3ft  -  4
mph
1030.8mb 40f 35f
7:50am  -   -  4
mph
1030.8mb - 36f
7:40am  -   -  4
mph
1030.7mb - 36f
7:30am  -   -  2 4 mph 1030.6mb - 36f
7:20am  -   -  2 4 mph 1030.6mb - 36f
7:10am  -   -  4
mph
1030.5mb - 35f
7:00am 0.3ft  -  4
mph
1030.4mb 40f 35f
6:50am  -   -  4
mph
1030.4mb - 35f
6:40am  -   -  4
mph
1030.2mb - 35f
6:30am  -   -  2 4 mph 1030.1mb - 35f
6:20am  -   -  2 4 mph 1030mb - 35f
6:10am  -   -  2 4 mph 1029.9mb - 35f
6:00am 0.3ft  -  2 4 mph 1029.9mb 40f 35f
5:50am  -   -  2 4 mph 1029.9mb - 35f
5:40am  -   -  2 4 mph 1029.9mb - 34f
5:30am  -   -  4
mph
1030mb - 34f
5:20am  -   -  4
mph
1029.8mb - 34f
5:10am  -   -  4 7 mph 1029.8mb - 34f
5:00am 0.3ft  -  4
mph
1029.7mb 40f 34f
4:50am  -   -  4 7 mph 1029.6mb - 34f
4:40am  -   -  4 7 mph 1029.5mb - 35f
4:30am  -   -  4 7 mph 1029.4mb - 35f
4:20am  -   -  4 7 mph 1029.3mb - 35f
4:10am  -   -  4 7 mph 1029.3mb - 35f
4:00am 0.7ft  -  4 7 mph 1029.2mb 40f 35f
3:50am  -   -  4 7 mph 1029.1mb - 35f
3:40am  -   -  7
mph
1029.1mb - 35f
3:30am  -   -  7
mph
1029.2mb - 35f
3:20am  -   -  7 9 mph 1029.2mb - 35f
3:10am  -   -  7 9 mph 1029.2mb - 35f
3:00am 0.3ft  -  7 9 mph 1029.2mb 40f 35f
2:50am  -   -  9
mph
1029.2mb - 35f
2:40am  -   -  7 9 mph 1029.2mb - 35f
2:30am  -   -  7 9 mph 1029.1mb - 35f
2:20am  -   -  7 9 mph 1029.1mb - 35f
2:10am  -   -  7 9 mph 1029mb - 35f
2:00am 0.3ft  -  7 9 mph 1028.9mb 41f 35f
1:50am  -   -  9 11 mph 1029mb - 35f
1:40am  -   -  9
mph
1028.9mb - 35f
1:30am  -   -  9 11 mph 1028.9mb - 35f
1:20am  -   -  9
mph
1028.8mb - 35f
1:10am  -   -  9 11 mph 1028.8mb - 35f
1:00am 0.7ft  -  9 11 mph 1028.6mb 41f 35f
12:50am  -   -  9 11 mph 1028.7mb - 35f
12:40am  -   -  9 11 mph 1028.6mb - 36f
12:30am  -   -  9
mph
1028.7mb - 36f
12:20am  -   -  9 11 mph 1028.8mb - 36f
12:10am  -   -  9 11 mph 1028.7mb - 35f
12:00am 0.7ft  -  9 11 mph 1028.8mb 41f 36f
Fri 02/05 11:50pm  -   -  9 11 mph 1028.7mb - 36f
11:40pm  -   -  9 11 mph 1028.8mb - 36f
11:30pm  -   -  9 11 mph 1028.6mb - 36f
11:20pm  -   -  9 11 mph 1028.5mb - 36f
11:10pm  -   -  9 11 mph 1028.5mb - 36f
11:00pm 1ft 2s 9 11 mph 1028.6mb 41f 36f
10:50pm  -   -  9 11 mph 1028.5mb - 36f
10:40pm  -   -  9 11 mph 1028.4mb - 37f
10:30pm  -   -  9 11 mph 1028.4mb - 37f
10:20pm  -   -  9 11 mph 1028.4mb - 37f
10:10pm  -   -  9 13 mph 1028.3mb - 37f
10:00pm 1ft 2s 9 11 mph 1028.2mb 41f 37f
9:50pm  -   -  11
mph
1028.3mb - 37f
9:40pm  -   -  9 13 mph 1028.3mb - 37f
9:30pm  -   -  9 11 mph 1028.2mb - 37f
9:20pm  -   -  11
mph
1028mb - 37f
9:10pm  -   -  9 11 mph 1028mb - 38f
9:00pm 1ft 2s 11 13 mph 1028mb 41f 38f
8:50pm  -   -  13 16 mph 1027.9mb - 38f
8:40pm  -   -  11 13 mph 1027.8mb - 38f
8:30pm  -   -  11 16 mph 1027.7mb - 38f
8:20pm  -   -  13 16 mph 1027.6mb - 38f
8:10pm  -   -  11 16 mph 1027.5mb - 39f
8:00pm 1.3ft 3s 11 16 mph 1027.5mb 41f 39f
7:50pm  -   -  13 16 mph 1027.3mb - 39f
7:40pm  -   -  13 16 mph 1027.2mb - 39f
7:30pm  -   -  13 18 mph 1027.2mb - 40f
7:20pm  -   -  16 20 mph 1027.3mb - 40f
7:10pm  -   -  18 22 mph 1027.5mb - 40f
7:00pm 1.6ft 3s 16 20 mph 1027.5mb 41f 40f
6:50pm  -   -  13 18 mph 1027.2mb - 40f
6:40pm  -   -  16 18 mph 1027.1mb - 40f
6:30pm  -   -  13 18 mph 1027mb - 40f
6:20pm  -   -  16 20 mph 1026.9mb - 40f
6:10pm  -   -  18 20 mph 1026.9mb - 41f
6:00pm 1.6ft 3s 18 22 mph 1026.8mb 41f 41f
5:50pm  -   -  18 22 mph 1026.5mb - 41f
5:40pm  -   -  18 22 mph 1026.3mb - 41f
5:30pm  -   -  20 25 mph 1026mb - 41f
5:20pm  -   -  20 25 mph 1025.7mb - 41f
5:10pm  -   -  20 22 mph 1025.5mb - 41f
5:00pm 2ft 3s 20 25 mph 1025.3mb 41f 41f
4:50pm  -   -  20 25 mph 1025.2mb - 41f
4:40pm  -   -  20 25 mph 1025.3mb - 41f
4:30pm  -   -  18 22 mph 1025.2mb - 41f
4:20pm  -   -  20 22 mph 1025.1mb - 41f
4:10pm  -   -  20 22 mph 1025mb - 41f
4:00pm 2ft 3s 20 25 mph 1024.9mb 41f 41f
3:50pm  -   -  20 25 mph 1024.8mb - 41f
3:40pm  -   -  20 25 mph 1024.7mb - 41f
3:30pm  -   -  20 22 mph 1024.6mb - 41f
3:20pm  -   -  18 22 mph 1024.6mb - 41f
3:10pm  -   -  18 22 mph 1024.4mb - 41f
3:00pm 2.5ft 3s 18 22 mph 1024.3mb 41f 41f
2:50pm  -   -  18 22 mph 1024.3mb - 41f
2:40pm  -   -  18 22 mph 1024.3mb - 41f
2:30pm  -   -  18 22 mph 1024.3mb - 41f
2:20pm  -   -  18 22 mph 1024.5mb - 41f
2:10pm  -   -  20 25 mph 1024.4mb - 41f
2:00pm 2ft 3s 20 25 mph 1024.4mb 41f 40f
1:50pm  -   -  20 25 mph 1024.3mb - 40f
1:40pm  -   -  20 22 mph 1024.1mb - 40f
1:30pm  -   -  20 25 mph 1024mb - 40f
1:20pm  -   -  20 25 mph 1024mb - 40f
1:10pm  -   -  20 25 mph 1024mb - 39f
1:00pm 2.5ft 3s 20 25 mph 1024.2mb 41f 39f
12:50pm  -   -  22 27 mph 1024.3mb - 39f
12:40pm  -   -  22 29 mph 1024.3mb - 38f
12:30pm  -   -  25 29 mph 1024.1mb - 38f
12:20pm  -   -  25 31 mph 1024.2mb - 38f
12:10pm  -   -  29 34 mph 1024.2mb - 38f
12:00pm 3ft 3s 27 31 mph 1024mb 41f 38f
11:50am  -   -  27 31 mph 1023.7mb - 38f
11:40am  -   -  27 31 mph 1023.6mb - 38f
11:30am  -   -  25 29 mph 1023.5mb - 39f
11:20am  -   -  22 27 mph 1023.3mb - 38f
11:10am  -   -  22 27 mph 1023.2mb - 38f
11:00am 2.5ft 3s 22 27 mph 1023mb 41f 38f
10:50am  -   -  25 29 mph 1022.9mb - 38f
10:40am  -   -  25 31 mph 1022.7mb - 38f
10:30am  -   -  25 31 mph 1022.5mb - 38f
10:20am  -   -  22 27 mph 1022.3mb - 38f
10:10am  -   -  22 29 mph 1022mb - 37f
10:00am 1.6ft 3s 20 25 mph 1021.7mb 41f 36f
9:50am  -   -  22 27 mph 1021.6mb - 36f
9:40am  -   -  22 29 mph 1021.4mb - 36f
9:30am  -   -  20 27 mph 1021mb - 36f
9:20am  -   -  18 22 mph 1021mb - 36f
9:10am  -   -  16 18 mph 1020.9mb - 36f
9:00am 1.3ft 3s 11 16 mph 1021mb 42f 35f
8:50am  -   -  11 16 mph 1020.9mb - 35f
8:40am  -   -  11 13 mph 1020.9mb - 35f
8:30am  -   -  13 16 mph 1020.5mb - 35f
8:20am  -   -  13 16 mph 1020.4mb - 34f
8:10am  -   -  13 18 mph 1020.4mb - 34f
8:00am 1.6ft 3s 13 16 mph 1021.2mb 41f 35f
7:50am  -   -  16 25 mph 1020.5mb - 35f
7:40am  -   -  18 27 mph 1019.5mb - 35f
7:30am  -   -  18 22 mph 1018.9mb - 35f
7:20am  -   -  18 25 mph 1019.4mb - 35f
7:10am  -   -  18 25 mph 1018.8mb - 35f
7:00am 1.6ft 3s 18 22 mph 1018.6mb 41f 35f
6:50am  -   -  18 25 mph 1018.3mb - 34f
6:40am  -   -  18 25 mph 1017.4mb - 34f
6:30am  -   -  18 25 mph 1017.4mb - 34f
6:20am  -   -  20 27 mph 1017.2mb - 34f
6:10am  -   -  18 22 mph 1017.5mb - 34f
6:00am 1.6ft 3s 18 25 mph 1017.6mb 41f 34f
5:50am  -   -  18 22 mph 1017.8mb - 34f
5:40am  -   -  18 22 mph 1017.4mb - 34f
5:30am  -   -  18 27 mph 1017.6mb - 34f
5:20am  -   -  20 29 mph 1017mb - 34f
5:10am  -   -  22 25 mph 1016.7mb - 34f
5:00am 1.6ft 3s 20 27 mph 1016.7mb 41f 34f
4:50am  -   -  22 27 mph 1016.8mb - 34f
4:40am  -   -  20 25 mph 1016.8mb - 34f
4:30am  -   -  18 25 mph 1016.6mb - 34f
4:20am  -   -  20 25 mph 1016.5mb - 34f
4:10am  -   -  18 22 mph 1016.7mb - 34f
4:00am 1.3ft 2s 18 25 mph 1016.6mb 41f 34f
3:50am  -   -  20 27 mph 1016.2mb - 35f
3:40am  -   -  20 25 mph 1016.8mb - 36f
3:30am  -   -  18 22 mph 1016.5mb - 36f
3:20am  -   -  20 25 mph 1016.3mb - 37f
3:10am  -   -  18 22 mph 1016.5mb - 37f
3:00am 1ft 2s 18 22 mph 1016.2mb 42f 37f
2:50am  -   -  18 25 mph 1016.4mb - 37f
2:40am  -   -  18 27 mph 1016.4mb - 38f
2:30am  -   -  18 25 mph 1016.3mb - 38f
2:20am  -   -  20 27 mph 1016.2mb - 38f
2:10am  -   -  18 25 mph 1016.5mb - 38f
2:00am 1ft 2s 18 22 mph 1016.2mb 42f 38f
1:50am  -   -  16 20 mph 1016.4mb - 39f
1:40am  -   -  11 18 mph 1016.4mb - 39f
1:30am  -   -  16 22 mph 1016.4mb - 39f
1:20am  -   -  18 25 mph 1016.2mb - 39f
1:10am  -   -  16 20 mph 1016.8mb - 40f
1:00am  -   -  18 22 mph 1016.7mb 41f 40f
12:50am  -   -  16 20 mph 1016.7mb - 40f
12:40am  -   -  16 20 mph 1016.8mb - 40f
12:30am  -   -  13 18 mph 1017.2mb - 41f
12:20am  -   -  11 16 mph 1017.2mb - 41f
12:10am  -   -  9 13 mph 1016.8mb - 40f
12:00am 0.3ft  -  13 16 mph 1016.5mb 41f 40f
Thu 02/04 11:50pm  -   -  11 16 mph 1017.2mb - 41f
11:40pm  -   -  11 13 mph 1017.4mb - 41f
11:30pm  -   -  13 16 mph 1017.4mb - 41f
11:20pm  -   -  11 16 mph 1017.5mb - 41f
11:10pm  -   -  11 16 mph 1017.6mb - 41f
11:00pm 0.3ft  -  13 18 mph 1017.8mb 42f 41f
10:50pm  -   -  9 16 mph 1017.8mb - 41f
10:40pm  -   -  7 13 mph 1017.8mb - 42f
10:30pm  -   -  7 11 mph 1018.1mb - 42f
10:20pm  -   -  9 11 mph 1018mb - 42f
10:10pm  -   -  9 13 mph 1017.9mb - 42f
10:00pm 0.3ft  -  7 11 mph 1018.1mb 41f 42f
9:50pm  -   -  4 9 mph 1017.9mb - 41f
9:40pm  -   -  4 7 mph 1018mb - 41f
9:30pm  -   -  7
mph
1017.8mb - 41f
9:20pm  -   -  4 7 mph 1017.9mb - 41f
9:10pm  -   -  7 9 mph 1018.2mb - 41f
9:00pm 0.3ft  -  4 7 mph 1018.2mb 41f 41f
8:50pm  -   -  7
mph
1017.6mb - 41f
8:40pm  -   -  7 9 mph 1017.5mb - 41f
8:30pm  -   -  7 9 mph 1017.2mb - 41f
8:20pm  -   -  7 11 mph 1016.9mb - 41f
8:10pm  -   -  7 9 mph 1017mb - 41f
8:00pm 0.3ft  -  9 11 mph 1017.4mb 41f 41f
7:50pm  -   -  9 11 mph 1017.5mb - 41f
7:40pm  -   -  7 9 mph 1017.8mb - 42f
7:30pm  -   -  7 9 mph 1018.2mb - 42f
7:20pm  -   -  9
mph
1018.2mb - 42f
7:10pm  -   -  9 13 mph 1017.9mb - 42f
7:00pm 0.3ft  -  9 11 mph 1017.8mb 41f 42f
6:50pm  -   -  9 11 mph 1018.1mb - 42f
6:40pm  -   -  11 13 mph 1017.8mb - 42f
6:30pm  -   -  9 11 mph 1018.2mb - 42f
6:20pm  -   -  11 13 mph 1017.3mb - 42f
6:10pm  -   -  11 16 mph 1017.2mb - 43f
6:00pm  -   -  9 13 mph 1017.3mb 42f 43f
5:50pm  -   -  9 13 mph 1017.5mb - 43f
5:40pm  -   -  11 16 mph 1016.8mb - 43f
5:30pm  -   -  11 16 mph 1017.1mb - 43f
5:20pm  -   -  11 16 mph 1016.8mb - 43f
5:10pm  -   -  11 13 mph 1017mb - 43f
5:00pm 0.3ft  -  11 16 mph 1017.2mb 42f 43f
4:50pm  -   -  9 11 mph 1017.1mb - 43f
4:40pm  -   -  9 11 mph 1017.1mb - 43f
4:30pm  -   -  7 9 mph 1017.2mb - 43f
4:20pm  -   -  9 13 mph 1017.3mb - 43f
4:10pm  -   -  11 18 mph 1017mb - 44f
4:00pm 0.3ft  -  13 18 mph 1016.8mb 41f 43f
3:50pm  -   -  13 16 mph 1016.9mb - 43f
3:40pm  -   -  11 16 mph 1016.9mb - 44f
3:30pm  -   -  11 13 mph 1016.9mb - 44f
3:20pm  -   -  9 13 mph 1016.8mb - 44f
3:10pm  -   -  11 16 mph 1016.9mb - 45f
3:00pm 0.3ft  -  9 13 mph 1016.8mb 41f 45f
2:50pm  -   -  9 13 mph 1016.4mb - 44f
2:40pm  -   -  11 13 mph 1016.3mb - 44f
2:30pm  -   -  11 13 mph 1016.1mb - 44f
2:20pm  -   -  9 13 mph 1016.4mb - 44f
2:10pm  -   -  9 13 mph 1016.7mb - 44f
2:00pm 0.7ft  -  11 13 mph 1016.8mb 41f 45f
1:50pm  -   -  11 16 mph 1016.6mb - 45f
1:40pm  -   -  16 20 mph 1016.4mb - 45f
1:30pm  -   -  16 20 mph 1016mb - 46f
1:20pm  -   -  16 20 mph 1015.8mb - 45f
1:10pm  -   -  16 18 mph 1016.2mb - 45f
1:00pm 0.7ft  -  16 22 mph 1016.4mb 41f 46f
12:50pm  -   -  16 22 mph 1016.5mb - 47f
12:40pm  -   -  16 25 mph 1016.4mb - 47f
12:30pm  -   -  16 20 mph 1016.5mb - 47f
12:20pm  -   -  16 22 mph 1016.5mb - 47f
12:10pm  -   -  16 22 mph 1016.7mb - 47f
12:00pm 0.7ft  -  16 20 mph 1017mb 41f 47f
11:50am  -   -  16 20 mph 1017.2mb - 48f
11:40am  -   -  16 22 mph 1017.1mb - 48f
11:30am  -   -  16 20 mph 1017.2mb - 49f
11:20am  -   -  16 20 mph 1017.3mb - 49f
11:10am  -   -  16 22 mph 1017.5mb - 49f
11:00am 0.7ft  -  13 20 mph 1017.3mb 42f 49f
10:50am  -   -  13 18 mph 1017.3mb - 49f
10:40am  -   -  13 18 mph 1017.3mb - 49f
10:30am  -   -  11 16 mph 1017.4mb - 49f
10:20am  -   -  11 18 mph 1017.3mb - 49f
10:10am  -   -  13 20 mph 1017.1mb - 49f
10:00am 1ft 2s 13 20 mph 1016.8mb 42f 49f
9:50am  -   -  16 22 mph 1016.5mb - 49f
9:40am  -   -  16 20 mph 1016.5mb - 50f
9:30am  -   -  16 22 mph 1016.2mb - 51f
9:20am  -   -  16 22 mph 1016.1mb - 51f
9:10am  -   -  13 18 mph 1015.7mb - 51f
9:00am 0.7ft  -  11 16 mph 1015.5mb 42f 51f
8:50am  -   -  13 20 mph 1015.5mb - 51f
8:40am  -   -  13 18 mph 1015.2mb - 51f
8:30am  -   -  13 18 mph 1014.8mb - 50f
8:20am  -   -  16 18 mph 1014.5mb - 50f
8:10am  -   -  16 20 mph 1014.7mb - 51f
8:00am 0.7ft  -  13 25 mph 1013.7mb 42f 53f
7:50am  -   -  4 7 mph 1013.4mb - 52f
7:40am  -   -  4
mph
1013.4mb - 53f
7:30am  -   -  4 7 mph 1013.1mb - 52f
7:20am  -   -  7 9 mph 1013mb - 54f
7:10am  -   -  9
mph
1012.9mb - 56f
7:00am 0.7ft  -  7
mph
1012.5mb 42f 54f
6:50am  -   -  7 9 mph 1012.3mb - 56f
6:40am  -   -  7 9 mph 1012.3mb - 55f
6:30am  -   -  9
mph
1012.3mb - 54f
6:20am  -   -  9
mph
1012.3mb - 53f
6:10am  -   -  9
mph
1012.3mb - 53f
6:00am 0.7ft  -  9
mph
1012.1mb 42f 54f
5:50am  -   -  9
mph
1012mb - 54f
5:40am  -   -  9
mph
1012mb - 52f
5:30am  -   -  9
mph
1011.9mb - 53f
5:20am  -   -  7 9 mph 1011.9mb - 51f
5:10am  -   -  9
mph
1012mb - 50f
5:00am 0.7ft  -  9
mph
1011.9mb 42f 49f
4:50am  -   -  9
mph
1011.6mb - 49f
4:40am  -   -  9 11 mph 1011.6mb - 49f
4:30am  -   -  7 9 mph 1011.6mb - 49f
4:20am  -   -  7
mph
1011.5mb - 48f
4:10am  -   -  7
mph
1011.6mb - 49f
4:00am 0.7ft  -  7 9 mph 1011.8mb 42f 49f
3:50am  -   -  7 9 mph 1011.8mb - 49f
3:40am  -   -  7 9 mph 1011.7mb - 49f
3:30am  -   -  7
mph
1011.7mb - 48f
3:20am  -   -  9
mph
1011.7mb - 49f
3:10am  -   -  9 11 mph 1011.9mb - 49f
3:00am 1ft 3s 9 11 mph 1011.7mb 41f 49f
2:50am  -   -  9 11 mph 1011.6mb - 49f
2:40am  -   -  9 11 mph 1011.6mb - 49f
2:30am  -   -  9 11 mph 1011.7mb - 49f
2:20am  -   -  9 11 mph 1011.7mb - 49f
2:10am  -   -  11
mph
1011.5mb - 49f
2:00am 1.3ft 3s 11
mph
1011.4mb 41f 49f
1:50am  -   -  11
mph
1011.5mb - 48f
1:40am  -   -  9 11 mph 1011.5mb - 49f
1:30am  -   -  9
mph
1011.4mb - 49f
1:20am  -   -  9 11 mph 1011.4mb - 49f
1:10am  -   -  9 11 mph 1011.7mb - 49f
1:00am 1.3ft 3s 11
mph
1011.8mb 41f 50f
12:50am  -   -  9
mph
1011.8mb - 49f
12:40am  -   -  9 11 mph 1011.9mb - 49f
12:30am  -   -  9 11 mph 1011.9mb - 49f
12:20am  -   -  9 11 mph 1012mb - 49f
12:10am  -   -  11 13 mph 1012.2mb - 49f
12:00am 2ft 3s 11 16 mph 1012.2mb 41f 49f
Wed 02/03 11:50pm  -   -  13 16 mph 1012.4mb - 50f
11:40pm  -   -  16 18 mph 1012.7mb - 51f
11:30pm  -   -  16 18 mph 1012.6mb - 51f
11:20pm  -   -  16 18 mph 1012.6mb - 51f
11:10pm  -   -  16
mph
1012.5mb - 50f
11:00pm 2.5ft 3s 16 18 mph 1012.5mb 41f 51f
10:50pm  -   -  18 20 mph 1012.6mb - 51f
10:40pm  -   -  20 25 mph 1012.7mb - 51f
10:30pm  -   -  16 20 mph 1012.5mb - 50f
10:20pm  -   -  9 13 mph 1012.3mb - 49f
10:10pm  -   -  11 13 mph 1012.5mb - 49f
10:00pm 1.6ft 3s 11
mph
1012.4mb 41f 48f
9:50pm  -   -  9 11 mph 1012mb - 47f
9:40pm  -   -  11 13 mph 1011.9mb - 48f
9:30pm  -   -  11 13 mph 1012.3mb - 48f
9:20pm  -   -  13 16 mph 1012.3mb - 48f
9:10pm  -   -  13
mph
1012.3mb - 49f
9:00pm 2ft 3s 13 16 mph 1012.3mb 41f 49f
8:50pm  -   -  16 20 mph 1012.5mb - 48f
8:40pm  -   -  20 22 mph 1012.3mb - 49f
8:30pm  -   -  18 22 mph 1012.4mb - 48f
8:20pm  -   -  16 20 mph 1012.5mb - 47f
8:10pm  -   -  20 22 mph 1012.5mb - 48f
8:00pm 1.3ft 2s 20 25 mph 1012.4mb 41f 47f
7:50pm  -   -  20 22 mph 1012.9mb - 47f
7:40pm  -   -  18 20 mph 1013.1mb - 46f
7:30pm  -   -  16 18 mph 1013.2mb - 46f
7:20pm  -   -  13 16 mph 1013.3mb - 46f
7:10pm  -   -  13 16 mph 1013.3mb - 47f
7:00pm 0.7ft  -  16
mph
1013mb 41f 47f
6:50pm  -   -  13 16 mph 1012.9mb - 47f
6:40pm  -   -  13 16 mph 1012.8mb - 46f
6:30pm  -   -  13 16 mph 1012.7mb - 46f
6:20pm  -   -  13
mph
1012.9mb - 46f
6:10pm  -   -  11 13 mph 1012.7mb - 46f
6:00pm 0.7ft  -  9 11 mph 1013mb 41f 45f
5:50pm  -   -  9
mph
1013.2mb - 45f
5:40pm  -   -  9 11 mph 1013.3mb - 45f
5:30pm  -   -  9
mph
1013.2mb - 46f
5:20pm  -   -  7
mph
1013.1mb - 46f
5:10pm  -   -  7 9 mph 1013mb - 46f
5:00pm 1ft 3s 7 9 mph 1013mb 41f 47f
4:50pm  -   -  7
mph
1013.2mb - 48f
4:40pm  -   -  4 7 mph 1013.3mb - 48f
4:30pm  -   -  7 9 mph 1013.3mb - 47f
4:20pm  -   -  4 7 mph 1013.1mb - 49f
4:10pm  -   -  2 7 mph 1013mb - 53f
4:00pm 1.6ft 2s 7 11 mph 1012.5mb 41f 53f
3:50pm  -   -  11 13 mph 1012.5mb - 53f
3:40pm  -   -  13 16 mph 1012.3mb - 53f
3:30pm  -   -  20 27 mph 1012.1mb - 52f
3:20pm  -   -  22 31 mph 1012.4mb - 52f
3:10pm  -   -  16 27 mph 1011.8mb - 52f
3:00pm 2ft 3s 13 16 mph 1010.8mb 41f 52f
2:50pm  -   -  13 16 mph 1010.8mb - 52f
2:40pm  -   -  13 16 mph 1011mb - 52f
2:30pm  -   -  16 18 mph 1011mb - 53f
2:20pm  -   -  16 18 mph 1011.1mb - 52f
2:10pm  -   -  16
mph
1011.2mb - 51f
2:00pm 1.6ft 3s 13 16 mph 1011.4mb 41f 51f
1:50pm  -   -  13 16 mph 1011.5mb - 51f
1:40pm  -   -  13 16 mph 1011.7mb - 50f
1:30pm  -   -  13 16 mph 1011.9mb - 50f
1:20pm  -   -  13 16 mph 1012.1mb - 51f
1:10pm  -   -  16 18 mph 1012.4mb - 51f
1:00pm 1.6ft 3s 13 16 mph 1012.6mb 40f 51f
12:50pm  -   -  13 16 mph 1012.8mb - 52f
12:40pm  -   -  13
mph
1013.1mb - 52f
12:30pm  -   -  13 16 mph 1013.5mb - 52f
12:20pm  -   -  16 18 mph 1013.8mb - 52f
12:10pm  -   -  13 16 mph 1014mb - 52f
12:00pm 1.6ft 3s 13 16 mph 1014.3mb 40f 52f
11:50am  -   -  16 18 mph 1014.7mb - 53f
11:40am  -   -  16 18 mph 1014.9mb - 52f
11:30am  -   -  13 16 mph 1015.1mb - 51f
11:20am  -   -  13 16 mph 1015.4mb - 50f
11:10am  -   -  13 16 mph 1015.6mb - 50f
11:00am 1.6ft 3s 13 16 mph 1015.8mb 40f 49f
10:50am  -   -  13 16 mph 1016.1mb - 49f
10:40am  -   -  13
mph
1016.3mb - 50f
10:30am  -   -  13 16 mph 1016.4mb - 50f
10:20am  -   -  13 18 mph 1016.6mb - 50f
10:10am  -   -  16 18 mph 1016.7mb - 50f
10:00am 1.6ft 3s 16 18 mph 1016.8mb 40f 49f
9:50am  -   -  13 16 mph 1017mb - 49f
9:40am  -   -  13 16 mph 1017mb - 49f
9:30am  -   -  13 16 mph 1017.2mb - 48f
9:20am  -   -  13 16 mph 1017.4mb - 48f
9:10am  -   -  13 16 mph 1017.5mb - 48f
9:00am 1.3ft 2s 13 16 mph 1017.5mb 41f 48f
8:50am  -   -  13
mph
1017.9mb - 48f
8:40am  -   -  11 13 mph 1018mb - 48f
8:30am  -   -  9 11 mph 1017.9mb - 47f
8:20am  -   -  7
mph
1017.9mb - 46f
8:10am  -   -  7
mph
1018mb - 45f
8:00am 1ft 2s 4 7 mph 1018mb 41f 44f
7:50am  -   -  4 7 mph 1018.1mb - 44f
7:40am  -   -  7 9 mph 1018.3mb - 44f
7:30am  -   -  11
mph
1018.3mb - 44f
7:20am  -   -  11 13 mph 1018.3mb - 44f
7:10am  -   -  11
mph
1018.4mb - 43f
7:00am 0.7ft  -  9
mph
1018.5mb 40f 42f
6:50am  -   -  7 9 mph 1018.6mb - 42f
6:40am  -   -  7
mph
1018.6mb - 42f
6:30am  -   -  7
mph
1018.7mb - 42f
6:20am  -   -  7
mph
1018.8mb - 42f
6:10am  -   -  7
mph
1018.9mb - 42f
6:00am 0.7ft  -  7
mph
1019mb 40f 42f
5:50am  -   -  7
mph
1019mb - 42f
5:40am  -   -  7
mph
1019mb - 42f
5:30am  -   -  7
mph
1019mb - 42f
5:20am  -   -  4 7 mph 1019.1mb - 42f
5:10am  -   -  4
mph
1019.1mb - 42f
5:00am 0.7ft  -  4
mph
1019.2mb 41f 42f
4:50am  -   -  4 7 mph 1019.4mb - 42f
4:40am  -   -  4 7 mph 1019.6mb - 42f
4:30am  -   -  4
mph
1019.9mb - 42f
4:20am  -   -  4
mph
1020.1mb - 42f
4:10am  -   -  4
mph
1020.1mb - 42f
4:00am 0.7ft  -  4 7 mph 1020.3mb 41f 42f
3:50am  -   -  7
mph
1020.4mb - 42f
3:40am  -   -  4 7 mph 1020.6mb - 42f
3:30am  -   -  4 7 mph 1020.7mb - 42f
3:20am  -   -  4
mph
1021.1mb - 42f
3:10am  -   -  2
mph
1021.2mb - 42f
3:00am 0.7ft  -   -  2 mph 1021.4mb 41f 42f
2:50am  -   -  2 4 mph 1021.5mb - 42f
2:40am  -   -  4 7 mph 1021.6mb - 42f
2:30am  -   -  7 9 mph 1021.3mb - 41f
2:20am  -   -  7 9 mph 1021.5mb - 41f
2:10am  -   -  9
mph
1021.5mb - 41f
2:00am 0.7ft  -  9
mph
1021.8mb 40f 41f
1:50am  -   -  9
mph
1022mb - 41f
1:40am  -   -  7 9 mph 1022.5mb - 41f
1:30am  -   -  4 7 mph 1022.6mb - 41f
1:20am  -   -  4
mph
1022.9mb - 41f
1:10am  -   -  4 7 mph 1022.9mb - 41f
1:00am 1ft 2s 4 7 mph 1023.1mb 40f 41f
12:50am  -   -  4 7 mph 1023.5mb - 41f
12:40am  -   -  4
mph
1023.4mb - 41f
12:30am  -   -  4
mph
1023.9mb - 41f
12:20am  -   -  4
mph
1024mb - 41f
12:10am  -   -  4 7 mph 1023.8mb - 41f
12:00am 1ft 3s 9 11 mph 1023.3mb 41f 41f
Tue 02/02 11:50pm  -   -  9 11 mph 1023.4mb - 41f
11:40pm  -   -  9 13 mph 1023.5mb - 41f
11:30pm  -   -  13
mph
1023.6mb - 41f
11:20pm  -   -  13 16 mph 1023.6mb - 41f
11:10pm  -   -  13 16 mph 1023.9mb - 41f
11:00pm 1ft 2s 13 16 mph 1024mb 41f 41f
10:50pm  -   -  13 16 mph 1024.2mb - 41f
10:40pm  -   -  11 16 mph 1024.5mb - 41f
10:30pm  -   -  11 13 mph 1024.8mb - 41f
10:20pm  -   -  9 11 mph 1025.1mb - 41f
10:10pm  -   -  9 11 mph 1025.2mb - 41f
10:00pm 1ft 2s 9
mph
1025.6mb 41f 41f
9:50pm  -   -  9 11 mph 1025.8mb - 41f
9:40pm  -   -  9 11 mph 1025.7mb - 41f
9:30pm  -   -  9 11 mph 1025.7mb - 42f
9:20pm  -   -  9 11 mph 1025.8mb - 42f
9:10pm  -   -  9 11 mph 1025.8mb - 42f
9:00pm 0.7ft  -  11 13 mph 1025.7mb 42f 42f
8:50pm  -   -  11 13 mph 1025.5mb - 42f
8:40pm  -   -  9 11 mph 1025.8mb - 41f
8:30pm  -   -  9
mph
1026mb - 41f
8:20pm  -   -  7 9 mph 1026mb - 42f
8:10pm  -   -  9
mph
1026mb - 42f
8:00pm  -   -  9
mph
1026.1mb 42f 42f
7:50pm  -   -  9 11 mph 1026.2mb - 42f
7:40pm  -   -  11
mph
1026.2mb - 42f
7:30pm  -   -  9 11 mph 1026.3mb - 42f
7:20pm  -   -  9 11 mph 1026.4mb - 42f
7:10pm  -   -  11
mph
1026.3mb - 42f
7:00pm  -   -  9 11 mph 1026.3mb 41f 42f
6:50pm  -   -  9 11 mph 1026.1mb - 42f
6:40pm  -   -  9
mph
1026.4mb - 42f
6:30pm  -   -  9
mph
1026.5mb - 42f
6:20pm  -   -  9
mph
1026.5mb - 43f
6:10pm  -   -  7 9 mph 1026.6mb - 42f
6:00pm 0.3ft  -  7
mph
1026.4mb 41f 42f
5:50pm  -   -  7
mph
1026.5mb - 43f
5:40pm  -   -  7
mph
1026.2mb - 43f
5:30pm  -   -  7 9 mph 1026.1mb - 43f
5:20pm  -   -  4 7 mph 1026mb - 44f
5:10pm  -   -  4 7 mph 1025.9mb - 45f
5:00pm  -   -  7
mph
1025.9mb 42f 46f
4:50pm  -   -  7
mph
1025.9mb - 46f
4:40pm  -   -  7 9 mph 1025.9mb - 47f
4:30pm  -   -  4 7 mph 1025.9mb - 47f
4:20pm  -   -  2 7 mph 1026mb - 47f